createdAt,value
2023-02-17T00:00:19.353Z,10.59
2023-02-17T00:01:24.747Z,10.64
2023-02-17T00:02:27.357Z,10.60
2023-02-17T00:03:30.076Z,10.67
2023-02-17T00:04:34.353Z,10.79
2023-02-17T00:05:39.874Z,10.77
2023-02-17T00:06:42.397Z,10.70
2023-02-17T00:07:44.917Z,10.77
2023-02-17T00:08:48.041Z,10.79
2023-02-17T00:09:50.558Z,10.72
2023-02-17T00:10:58.243Z,10.94
2023-02-17T00:12:00.767Z,10.73
2023-02-17T00:13:03.285Z,10.76
2023-02-17T00:14:05.929Z,10.77
2023-02-17T00:15:09.167Z,10.75
2023-02-17T00:16:17.863Z,10.81
2023-02-17T00:17:20.451Z,10.59
2023-02-17T00:18:23.818Z,10.61
2023-02-17T00:19:26.582Z,11.42
2023-02-17T00:20:29.826Z,11.15
2023-02-17T00:21:33.057Z,11.16
2023-02-17T00:22:36.661Z,11.16
2023-02-17T00:23:39.662Z,11.00
2023-02-17T00:24:42.783Z,11.04
2023-02-17T00:25:45.789Z,10.93
2023-02-17T00:26:49.273Z,10.94
2023-02-17T00:27:52.270Z,10.96
2023-02-17T00:28:55.403Z,10.89
2023-02-17T00:29:58.542Z,10.86
2023-02-17T00:31:11.462Z,11.10
2023-02-17T00:32:14.691Z,10.94
2023-02-17T00:33:18.679Z,10.96
2023-02-17T00:34:21.802Z,10.88
2023-02-17T00:35:24.925Z,10.90
2023-02-17T00:36:28.657Z,10.94
2023-02-17T00:37:31.887Z,10.90
2023-02-17T00:38:35.259Z,10.88
2023-02-17T00:39:38.373Z,10.87
2023-02-17T00:40:42.813Z,10.89
2023-02-17T00:41:45.940Z,10.87
2023-02-17T00:42:49.422Z,10.88
2023-02-17T00:43:53.023Z,10.91
2023-02-17T00:44:58.064Z,10.95
2023-02-17T00:46:01.182Z,10.89
2023-02-17T00:47:04.314Z,10.81
2023-02-17T00:48:07.438Z,10.79
2023-02-17T00:49:16.918Z,10.91
2023-02-17T00:50:20.155Z,10.92
2023-02-17T00:51:24.472Z,10.88
2023-02-17T00:52:27.840Z,10.97
2023-02-17T00:53:31.325Z,10.93
2023-02-17T00:54:36.357Z,10.91
2023-02-17T00:55:39.838Z,10.90
2023-02-17T00:56:43.713Z,10.95
2023-02-17T00:57:46.924Z,10.93
2023-02-17T00:58:50.299Z,10.96
2023-02-17T00:59:53.409Z,10.93
2023-02-17T01:00:57.732Z,11.07
2023-02-17T01:02:00.813Z,11.08
2023-02-17T01:03:06.131Z,11.14
2023-02-17T01:04:09.372Z,11.03
2023-02-17T01:05:12.016Z,11.08
2023-02-17T01:06:22.937Z,11.00
2023-02-17T01:07:25.337Z,11.17
2023-02-17T01:08:27.798Z,10.83
2023-02-17T01:09:30.747Z,10.84
2023-02-17T01:10:33.266Z,10.86
2023-02-17T01:11:36.634Z,10.94
2023-02-17T01:12:39.797Z,11.54
2023-02-17T01:13:42.272Z,11.28
2023-02-17T01:14:45.032Z,11.30
2023-02-17T01:15:50.213Z,11.36
2023-02-17T01:16:52.836Z,11.19
2023-02-17T01:17:56.483Z,11.18
2023-02-17T01:18:59.241Z,11.15
2023-02-17T01:20:02.247Z,11.16
2023-02-17T01:21:04.966Z,11.19
2023-02-17T01:22:10.412Z,11.24
2023-02-17T01:23:14.245Z,11.20
2023-02-17T01:24:17.009Z,10.98
2023-02-17T01:25:19.770Z,11.00
2023-02-17T01:26:24.812Z,11.79
2023-02-17T01:27:27.448Z,11.51
2023-02-17T01:28:31.496Z,11.66
2023-02-17T01:29:34.064Z,11.63
2023-02-17T01:30:36.698Z,11.50
2023-02-17T01:31:40.549Z,11.58
2023-02-17T01:32:47.054Z,11.49
2023-02-17T01:33:50.735Z,11.58
2023-02-17T01:34:53.253Z,11.60
2023-02-17T01:35:55.899Z,11.70
2023-02-17T01:36:58.543Z,11.19
2023-02-17T01:38:01.533Z,11.04
2023-02-17T01:39:04.903Z,10.86
2023-02-17T01:40:08.269Z,10.81
2023-02-17T01:41:11.855Z,10.81
2023-02-17T01:42:22.418Z,10.86
2023-02-17T01:43:25.300Z,10.75
2023-02-17T01:44:31.540Z,10.75
2023-02-17T01:45:46.301Z,10.85
2023-02-17T01:46:51.408Z,10.83
2023-02-17T01:48:01.896Z,10.87
2023-02-17T01:49:27.821Z,10.82
2023-02-17T01:50:39.098Z,10.86
2023-02-17T01:51:42.449Z,10.70
2023-02-17T01:52:45.459Z,10.71
2023-02-17T01:54:06.822Z,10.81
2023-02-17T01:55:13.788Z,10.73
2023-02-17T01:56:17.507Z,10.72
2023-02-17T01:57:23.753Z,10.84
2023-02-17T01:58:27.585Z,10.78
2023-02-17T01:59:31.197Z,10.80
2023-02-17T02:00:35.506Z,10.80
2023-02-17T02:01:39.586Z,10.80
2023-02-17T02:02:46.195Z,10.83
2023-02-17T02:03:52.437Z,10.83
2023-02-17T02:04:55.391Z,10.70
2023-02-17T02:05:59.634Z,10.80
2023-02-17T02:07:03.349Z,10.86
2023-02-17T02:08:06.591Z,10.86
2023-02-17T02:09:19.712Z,11.00
2023-02-17T02:10:22.320Z,10.81
2023-02-17T02:11:24.838Z,10.80
2023-02-17T02:12:33.120Z,10.92
2023-02-17T02:13:37.444Z,10.84
2023-02-17T02:14:39.966Z,10.79
2023-02-17T02:15:57.486Z,10.89
2023-02-17T02:17:14.051Z,10.91
2023-02-17T02:18:29.174Z,10.89
2023-02-17T02:19:48.975Z,10.85
2023-02-17T02:21:16.103Z,10.95
2023-02-17T02:22:39.983Z,10.72
2023-02-17T02:23:54.862Z,10.94
2023-02-17T02:25:30.384Z,10.93
2023-02-17T02:27:13.829Z,10.86
2023-02-17T02:28:23.925Z,10.92
2023-02-17T02:29:57.816Z,10.93
2023-02-17T02:31:35.719Z,10.91
2023-02-17T02:32:57.402Z,10.75
2023-02-17T02:34:05.562Z,10.85
2023-02-17T02:35:36.531Z,10.96
2023-02-17T02:36:52.368Z,10.92
2023-02-17T02:38:10.367Z,10.79
2023-02-17T02:39:21.774Z,10.94
2023-02-17T02:40:32.214Z,10.92
2023-02-17T02:41:42.653Z,10.92
2023-02-17T02:42:47.335Z,10.82
2023-02-17T02:43:50.590Z,10.81
2023-02-17T02:44:53.821Z,10.79
2023-02-17T02:45:57.340Z,10.83
2023-02-17T02:47:06.790Z,10.95
2023-02-17T02:48:10.143Z,10.88
2023-02-17T02:49:13.387Z,10.91
2023-02-17T02:50:39.550Z,11.01
2023-02-17T02:51:55.154Z,10.84
2023-02-17T02:53:25.513Z,11.11
2023-02-17T02:54:49.520Z,11.09
2023-02-17T02:56:24.199Z,11.06
2023-02-17T02:57:54.919Z,11.09
2023-02-17T02:59:10.402Z,10.97
2023-02-17T03:00:26.128Z,10.90
2023-02-17T03:02:01.526Z,10.88
2023-02-17T03:03:18.016Z,10.88
2023-02-17T03:04:53.254Z,10.83
2023-02-17T03:06:17.267Z,10.95
2023-02-17T03:07:27.458Z,10.92
2023-02-17T03:08:38.859Z,10.89
2023-02-17T03:09:42.097Z,10.80
2023-02-17T03:10:51.705Z,10.85
2023-02-17T03:11:58.836Z,10.88
2023-02-17T03:13:03.950Z,10.83
2023-02-17T03:14:16.117Z,10.90
2023-02-17T03:15:30.599Z,10.91
2023-02-17T03:16:37.207Z,10.88
2023-02-17T03:17:40.008Z,10.80
2023-02-17T03:18:43.250Z,10.79
2023-02-17T03:19:47.688Z,10.83
2023-02-17T03:20:56.518Z,11.00
2023-02-17T03:22:23.772Z,10.87
2023-02-17T03:23:26.328Z,10.75
2023-02-17T03:24:28.967Z,10.79
2023-02-17T03:25:31.848Z,10.88
2023-02-17T03:26:34.726Z,10.83
2023-02-17T03:27:37.328Z,10.77
2023-02-17T03:28:39.891Z,10.78
2023-02-17T03:29:43.015Z,10.81
2023-02-17T03:30:45.663Z,10.84
2023-02-17T03:31:48.455Z,10.82
2023-02-17T03:32:51.063Z,10.81
2023-02-17T03:33:53.657Z,10.87
2023-02-17T03:34:56.334Z,10.76
2023-02-17T03:35:59.700Z,10.78
2023-02-17T03:37:02.224Z,10.75
2023-02-17T03:38:06.417Z,10.80
2023-02-17T03:39:09.065Z,10.78
2023-02-17T03:40:11.815Z,10.81
2023-02-17T03:41:14.456Z,10.83
2023-02-17T03:42:17.338Z,10.80
2023-02-17T03:43:20.096Z,10.79
2023-02-17T03:44:22.860Z,10.82
2023-02-17T03:45:25.976Z,10.84
2023-02-17T03:46:28.505Z,10.86
2023-02-17T03:47:31.148Z,10.80
2023-02-17T03:48:33.783Z,10.87
2023-02-17T03:49:36.422Z,10.81
2023-02-17T03:50:39.061Z,10.82
2023-02-17T03:51:41.704Z,10.81
2023-02-17T03:52:45.660Z,10.85
2023-02-17T03:53:49.038Z,10.85
2023-02-17T03:54:52.743Z,10.81
2023-02-17T03:55:55.267Z,10.85
2023-02-17T03:56:59.221Z,10.90
2023-02-17T03:58:01.753Z,10.87
2023-02-17T03:59:04.744Z,10.87
2023-02-17T04:00:07.989Z,10.90
2023-02-17T04:01:15.846Z,10.91
2023-02-17T04:02:18.426Z,10.94
2023-02-17T04:03:21.188Z,10.91
2023-02-17T04:04:23.767Z,10.93
2023-02-17T04:05:26.346Z,10.91
2023-02-17T04:06:28.871Z,10.91
2023-02-17T04:07:31.395Z,10.91
2023-02-17T04:08:34.151Z,10.94
2023-02-17T04:09:36.792Z,10.96
2023-02-17T04:10:39.317Z,10.95
2023-02-17T04:11:42.567Z,11.00
2023-02-17T04:12:45.213Z,10.87
2023-02-17T04:13:47.841Z,10.88
2023-02-17T04:14:50.368Z,10.84
2023-02-17T04:15:53.404Z,10.91
2023-02-17T04:16:55.882Z,10.85
2023-02-17T04:17:58.412Z,10.87
2023-02-17T04:19:01.054Z,10.88
2023-02-17T04:20:05.038Z,10.95
2023-02-17T04:21:08.009Z,10.94
2023-02-17T04:22:10.789Z,10.96
2023-02-17T04:23:14.612Z,11.01
2023-02-17T04:24:17.374Z,10.98
2023-02-17T04:25:20.019Z,11.03
2023-02-17T04:26:22.782Z,11.05
2023-02-17T04:27:25.903Z,11.02
2023-02-17T04:28:29.623Z,11.08
2023-02-17T04:29:33.835Z,11.14
2023-02-17T04:30:36.827Z,11.01
2023-02-17T04:31:39.935Z,10.95
2023-02-17T04:32:43.080Z,11.03
2023-02-17T04:33:46.311Z,11.04
2023-02-17T04:34:49.432Z,11.03
2023-02-17T04:35:54.247Z,11.05
2023-02-17T04:36:57.359Z,11.01
2023-02-17T04:38:00.479Z,11.04
2023-02-17T04:39:03.600Z,11.03
2023-02-17T04:40:10.721Z,11.13
2023-02-17T04:41:13.806Z,11.03
2023-02-17T04:42:17.163Z,11.00
2023-02-17T04:43:20.286Z,10.95
2023-02-17T04:44:23.410Z,10.92
2023-02-17T04:45:26.529Z,10.89
2023-02-17T04:46:29.817Z,10.92
2023-02-17T04:47:33.371Z,10.92
2023-02-17T04:48:36.492Z,10.92
2023-02-17T04:49:39.618Z,10.89
2023-02-17T04:50:42.737Z,10.91
2023-02-17T04:51:45.987Z,10.93
2023-02-17T04:52:49.581Z,10.99
2023-02-17T04:53:52.702Z,10.92
2023-02-17T04:54:55.945Z,10.90
2023-02-17T04:55:59.071Z,10.96
2023-02-17T04:57:02.322Z,10.94
2023-02-17T04:58:05.562Z,10.99
2023-02-17T04:59:08.927Z,10.98
2023-02-17T05:00:12.632Z,10.98
2023-02-17T05:01:16.270Z,10.92
2023-02-17T05:02:19.476Z,10.96
2023-02-17T05:03:23.320Z,11.00
2023-02-17T05:04:26.840Z,10.97
2023-02-17T05:05:30.406Z,11.02
2023-02-17T05:06:33.644Z,10.94
2023-02-17T05:07:36.645Z,11.00
2023-02-17T05:08:40.006Z,11.00
2023-02-17T05:09:42.895Z,11.02
2023-02-17T05:10:45.890Z,11.03
2023-02-17T05:11:48.532Z,11.01
2023-02-17T05:12:51.293Z,11.00
2023-02-17T05:13:53.946Z,10.98
2023-02-17T05:14:56.582Z,11.03
2023-02-17T05:15:59.609Z,11.09
2023-02-17T05:17:02.393Z,11.07
2023-02-17T05:18:05.343Z,11.13
2023-02-17T05:19:07.915Z,11.05
2023-02-17T05:20:10.913Z,11.04
2023-02-17T05:21:13.504Z,10.98
2023-02-17T05:22:16.192Z,10.93
2023-02-17T05:23:18.730Z,11.00
2023-02-17T05:24:21.478Z,11.02
2023-02-17T05:25:24.119Z,11.07
2023-02-17T05:26:27.080Z,11.11
2023-02-17T05:27:29.640Z,11.03
2023-02-17T05:28:32.162Z,10.99
2023-02-17T05:29:35.137Z,11.11
2023-02-17T05:30:37.761Z,11.08
2023-02-17T05:31:40.541Z,11.05
2023-02-17T05:32:43.448Z,11.06
2023-02-17T05:33:46.048Z,11.06
2023-02-17T05:34:48.692Z,11.01
2023-02-17T05:35:51.365Z,11.02
2023-02-17T05:36:54.007Z,11.04
2023-02-17T05:37:56.532Z,11.05
2023-02-17T05:38:59.289Z,11.08
2023-02-17T05:40:01.905Z,11.11
2023-02-17T05:41:04.808Z,11.10
2023-02-17T05:42:07.570Z,11.16
2023-02-17T05:43:10.091Z,11.04
2023-02-17T05:44:12.741Z,11.08
2023-02-17T05:45:15.495Z,11.09
2023-02-17T05:46:18.189Z,11.11
2023-02-17T05:47:20.893Z,11.03
2023-02-17T05:48:23.532Z,11.02
2023-02-17T05:49:26.299Z,11.00
2023-02-17T05:50:29.037Z,11.06
2023-02-17T05:51:38.788Z,11.09
2023-02-17T05:52:41.661Z,11.06
2023-02-17T05:53:45.023Z,11.08
2023-02-17T05:54:47.568Z,10.98
2023-02-17T05:55:50.200Z,11.03
2023-02-17T05:56:52.819Z,11.05
2023-02-17T05:57:55.345Z,11.08
2023-02-17T05:58:58.224Z,11.16
2023-02-17T06:00:00.746Z,11.14
2023-02-17T06:01:11.546Z,11.30
2023-02-17T06:02:14.075Z,11.09
2023-02-17T06:03:17.093Z,11.06
2023-02-17T06:04:19.617Z,11.09
2023-02-17T06:05:22.112Z,11.09
2023-02-17T06:06:24.755Z,11.09
2023-02-17T06:07:27.272Z,11.07
2023-02-17T06:08:30.272Z,11.06
2023-02-17T06:09:32.798Z,11.05
2023-02-17T06:10:35.330Z,10.92
2023-02-17T06:11:37.721Z,10.94
2023-02-17T06:12:40.603Z,10.95
2023-02-17T06:13:43.240Z,10.95
2023-02-17T06:14:45.880Z,10.98
2023-02-17T06:15:48.429Z,10.95
2023-02-17T06:16:51.045Z,10.88
2023-02-17T06:17:53.569Z,10.98
2023-02-17T06:18:56.102Z,10.98
2023-02-17T06:19:58.737Z,10.96
2023-02-17T06:21:01.496Z,11.84
2023-02-17T06:22:04.134Z,12.22
2023-02-17T06:23:06.773Z,11.73
2023-02-17T06:24:09.561Z,11.89
2023-02-17T06:25:12.300Z,11.81
2023-02-17T06:26:15.066Z,11.77
2023-02-17T06:27:18.087Z,11.50
2023-02-17T06:28:21.809Z,11.51
2023-02-17T06:29:24.667Z,11.37
2023-02-17T06:30:28.089Z,11.23
2023-02-17T06:31:31.099Z,11.03
2023-02-17T06:32:34.987Z,11.11
2023-02-17T06:33:38.113Z,11.09
2023-02-17T06:34:41.110Z,11.09
2023-02-17T06:35:48.674Z,11.36
2023-02-17T06:36:51.796Z,11.07
2023-02-17T06:37:54.976Z,11.10
2023-02-17T06:38:58.157Z,11.08
2023-02-17T06:40:01.287Z,11.07
2023-02-17T06:41:04.518Z,11.10
2023-02-17T06:42:07.643Z,11.19
2023-02-17T06:43:10.882Z,11.15
2023-02-17T06:44:14.004Z,11.18
2023-02-17T06:45:17.372Z,11.01
2023-02-17T06:46:20.486Z,11.01
2023-02-17T06:47:23.608Z,11.51
2023-02-17T06:48:26.730Z,11.59
2023-02-17T06:49:29.853Z,11.54
2023-02-17T06:50:32.979Z,11.39
2023-02-17T06:51:36.096Z,11.35
2023-02-17T06:52:39.576Z,10.96
2023-02-17T06:53:42.699Z,11.03
2023-02-17T06:54:47.621Z,11.00
2023-02-17T06:55:50.741Z,11.09
2023-02-17T06:56:53.982Z,11.07
2023-02-17T06:57:57.590Z,11.16
2023-02-17T06:59:02.028Z,11.22
2023-02-17T07:00:07.069Z,11.17
2023-02-17T07:01:17.875Z,11.28
2023-02-17T07:02:21.069Z,11.30
2023-02-17T07:03:24.358Z,10.97
2023-02-17T07:04:27.597Z,11.01
2023-02-17T07:05:30.963Z,11.00
2023-02-17T07:06:34.328Z,11.17
2023-02-17T07:07:37.928Z,10.98
2023-02-17T07:08:41.527Z,10.98
2023-02-17T07:09:44.768Z,11.04
2023-02-17T07:10:47.891Z,11.01
2023-02-17T07:11:51.613Z,11.07
2023-02-17T07:12:54.735Z,11.07
2023-02-17T07:13:58.461Z,11.13
2023-02-17T07:15:01.469Z,11.14
2023-02-17T07:16:05.170Z,11.19
2023-02-17T07:17:09.028Z,11.10
2023-02-17T07:18:11.785Z,11.13
2023-02-17T07:19:14.786Z,11.14
2023-02-17T07:20:17.667Z,11.24
2023-02-17T07:21:20.674Z,11.21
2023-02-17T07:22:25.713Z,11.24
2023-02-17T07:23:28.360Z,11.10
2023-02-17T07:24:31.356Z,11.29
2023-02-17T07:25:34.297Z,11.27
2023-02-17T07:26:38.078Z,11.24
2023-02-17T07:27:40.882Z,11.18
2023-02-17T07:28:43.603Z,11.19
2023-02-17T07:29:46.251Z,11.30
2023-02-17T07:30:48.787Z,11.30
2023-02-17T07:31:51.676Z,11.20
2023-02-17T07:32:54.177Z,11.18
2023-02-17T07:33:56.849Z,11.13
2023-02-17T07:34:59.369Z,11.11
2023-02-17T07:36:07.753Z,11.34
2023-02-17T07:37:10.417Z,11.23
2023-02-17T07:38:13.532Z,11.10
2023-02-17T07:39:16.776Z,11.09
2023-02-17T07:40:19.497Z,11.10
2023-02-17T07:41:25.056Z,11.27
2023-02-17T07:42:28.193Z,11.23
2023-02-17T07:43:30.812Z,11.22
2023-02-17T07:44:33.811Z,11.04
2023-02-17T07:45:36.367Z,11.20
2023-02-17T07:46:41.734Z,11.23
2023-02-17T07:47:44.374Z,11.17
2023-02-17T07:48:47.979Z,11.18
2023-02-17T07:49:50.623Z,11.10
2023-02-17T07:50:53.503Z,11.04
2023-02-17T07:51:56.275Z,11.12
2023-02-17T07:52:59.134Z,11.18
2023-02-17T07:54:02.498Z,11.20
2023-02-17T07:55:05.498Z,11.23
2023-02-17T07:56:11.017Z,11.28
2023-02-17T07:57:13.660Z,11.17
2023-02-17T07:58:16.404Z,11.17
2023-02-17T07:59:18.946Z,11.21
2023-02-17T08:00:21.703Z,11.37
2023-02-17T08:01:25.660Z,11.35
2023-02-17T08:02:28.307Z,11.12
2023-02-17T08:03:30.823Z,11.16
2023-02-17T08:04:33.373Z,11.28
2023-02-17T08:05:39.342Z,11.35
2023-02-17T08:06:41.867Z,11.40
2023-02-17T08:07:44.386Z,11.35
2023-02-17T08:09:06.604Z,11.32
2023-02-17T08:10:31.449Z,11.43
2023-02-17T08:11:53.171Z,11.36
2023-02-17T08:13:07.910Z,11.35
2023-02-17T08:14:12.857Z,11.42
2023-02-17T08:15:15.712Z,11.43
2023-02-17T08:16:18.375Z,11.31
2023-02-17T08:17:20.887Z,11.35
2023-02-17T08:18:23.517Z,11.39
2023-02-17T08:19:31.730Z,11.48
2023-02-17T08:20:42.136Z,11.41
2023-02-17T08:21:45.030Z,11.51
2023-02-17T08:22:47.659Z,11.39
2023-02-17T08:23:50.295Z,11.36
2023-02-17T08:24:54.500Z,11.38
2023-02-17T08:25:59.909Z,11.51
2023-02-17T08:27:02.776Z,11.43
2023-02-17T08:28:06.396Z,11.50
2023-02-17T08:29:09.253Z,11.42
2023-02-17T08:30:12.546Z,11.38
2023-02-17T08:31:21.025Z,11.58
2023-02-17T08:32:24.152Z,11.38
2023-02-17T08:33:27.026Z,11.42
2023-02-17T08:34:33.894Z,11.46
2023-02-17T08:35:36.888Z,11.48
2023-02-17T08:36:40.235Z,11.46
2023-02-17T08:37:43.254Z,11.44
2023-02-17T08:38:50.560Z,11.53
2023-02-17T08:39:54.038Z,11.59
2023-02-17T08:40:57.184Z,11.55
2023-02-17T08:42:00.883Z,11.57
2023-02-17T08:43:03.998Z,11.57
2023-02-17T08:44:15.782Z,11.75
2023-02-17T08:45:18.898Z,11.63
2023-02-17T08:46:22.661Z,11.75
2023-02-17T08:47:25.965Z,11.75
2023-02-17T08:48:29.209Z,11.79
2023-02-17T08:49:33.085Z,11.80
2023-02-17T08:50:36.445Z,11.45
2023-02-17T08:51:40.057Z,11.33
2023-02-17T08:52:43.132Z,11.28
2023-02-17T08:53:47.220Z,11.34
2023-02-17T08:54:52.622Z,11.36
2023-02-17T08:55:56.221Z,11.32
2023-02-17T08:56:59.341Z,11.32
2023-02-17T08:58:02.633Z,11.28
2023-02-17T08:59:08.287Z,11.38
2023-02-17T09:00:12.576Z,11.44
2023-02-17T09:01:16.792Z,11.30
2023-02-17T09:02:19.881Z,11.24
2023-02-17T09:03:23.376Z,11.26
2023-02-17T09:04:26.639Z,11.28
2023-02-17T09:05:29.994Z,11.28
2023-02-17T09:06:42.556Z,11.51
2023-02-17T09:07:45.697Z,11.45
2023-02-17T09:08:49.760Z,11.44
2023-02-17T09:09:52.910Z,11.46
2023-02-17T09:10:57.085Z,11.49
2023-02-17T09:12:00.334Z,11.56
2023-02-17T09:13:03.636Z,11.50
2023-02-17T09:14:07.894Z,11.55
2023-02-17T09:15:10.840Z,11.78
2023-02-17T09:16:14.044Z,11.88
2023-02-17T09:17:17.143Z,11.89
2023-02-17T09:18:22.794Z,12.02
2023-02-17T09:19:26.453Z,11.97
2023-02-17T09:20:29.347Z,11.99
2023-02-17T09:21:32.544Z,12.04
2023-02-17T09:22:35.560Z,12.08
2023-02-17T09:23:38.642Z,11.97
2023-02-17T09:24:41.279Z,11.96
2023-02-17T09:25:44.809Z,11.98
2023-02-17T09:26:47.325Z,11.94
2023-02-17T09:27:50.330Z,11.95
2023-02-17T09:28:53.061Z,11.91
2023-02-17T09:29:55.842Z,12.03
2023-02-17T09:30:58.511Z,11.97
2023-02-17T09:32:01.165Z,12.03
2023-02-17T09:33:05.492Z,12.01
2023-02-17T09:34:08.090Z,12.05
2023-02-17T09:35:15.999Z,12.29
2023-02-17T09:36:22.089Z,12.29
2023-02-17T09:37:25.153Z,11.85
2023-02-17T09:38:27.615Z,11.79
2023-02-17T09:39:30.296Z,11.76
2023-02-17T09:40:39.137Z,11.72
2023-02-17T09:41:52.154Z,11.92
2023-02-17T09:42:54.877Z,11.74
2023-02-17T09:43:57.936Z,11.90
2023-02-17T09:45:04.995Z,12.01
2023-02-17T09:46:12.102Z,12.09
2023-02-17T09:47:20.355Z,12.16
2023-02-17T09:48:29.340Z,12.13
2023-02-17T09:49:39.329Z,12.08
2023-02-17T09:50:48.306Z,12.07
2023-02-17T09:52:09.067Z,12.03
2023-02-17T09:53:45.312Z,12.09
2023-02-17T09:55:11.132Z,12.08
2023-02-17T09:56:19.741Z,12.14
2023-02-17T09:57:27.564Z,12.23
2023-02-17T09:58:36.543Z,12.15
2023-02-17T09:59:59.326Z,12.23
2023-02-17T10:01:06.422Z,12.10
2023-02-17T10:02:17.711Z,12.22
2023-02-17T10:03:31.332Z,12.29
2023-02-17T10:04:44.386Z,12.19
2023-02-17T10:05:54.155Z,12.27
2023-02-17T10:07:04.439Z,12.22
2023-02-17T10:08:16.420Z,12.28
2023-02-17T10:09:45.622Z,12.37
2023-02-17T10:11:04.699Z,12.29
2023-02-17T10:12:20.348Z,12.26
2023-02-17T10:13:24.935Z,12.33
2023-02-17T10:14:47.592Z,12.48
2023-02-17T10:15:53.387Z,12.42
2023-02-17T10:17:08.411Z,12.52
2023-02-17T10:18:20.188Z,12.42
2023-02-17T10:19:31.641Z,12.49
2023-02-17T10:20:39.708Z,12.54
2023-02-17T10:22:02.517Z,12.49
2023-02-17T10:23:16.572Z,12.44
2023-02-17T10:24:19.170Z,12.33
2023-02-17T10:25:39.445Z,12.52
2023-02-17T10:26:53.627Z,12.50
2023-02-17T10:28:10.109Z,12.51
2023-02-17T10:29:30.882Z,12.59
2023-02-17T10:30:41.544Z,12.57
2023-02-17T10:31:45.923Z,12.44
2023-02-17T10:33:01.059Z,12.50
2023-02-17T10:34:10.308Z,12.42
2023-02-17T10:35:22.426Z,12.52
2023-02-17T10:36:56.275Z,12.56
2023-02-17T10:38:15.520Z,12.55
2023-02-17T10:39:44.643Z,12.59
2023-02-17T10:40:51.481Z,12.53
2023-02-17T10:41:55.672Z,12.40
2023-02-17T10:43:07.062Z,12.50
2023-02-17T10:44:19.680Z,12.46
2023-02-17T10:45:38.638Z,12.43
2023-02-17T10:46:44.325Z,12.40
2023-02-17T10:47:48.122Z,12.48
2023-02-17T10:48:53.897Z,12.54
2023-02-17T10:49:58.926Z,12.49
2023-02-17T10:51:02.412Z,12.49
2023-02-17T10:52:19.928Z,12.51
2023-02-17T10:53:26.310Z,12.43
2023-02-17T10:54:43.332Z,12.60
2023-02-17T10:55:58.945Z,12.54
2023-02-17T10:57:04.232Z,12.36
2023-02-17T10:58:22.579Z,12.52
2023-02-17T10:59:40.709Z,12.59
2023-02-17T11:00:43.906Z,12.36
2023-02-17T11:01:47.308Z,12.45
2023-02-17T11:02:52.716Z,12.49
2023-02-17T11:04:05.506Z,12.52
2023-02-17T11:05:20.916Z,12.39
2023-02-17T11:06:24.398Z,12.37
2023-02-17T11:07:39.877Z,12.40
2023-02-17T11:08:59.321Z,12.46
2023-02-17T11:10:05.681Z,12.40
2023-02-17T11:11:19.120Z,12.48
2023-02-17T11:12:42.778Z,12.40
2023-02-17T11:14:10.648Z,12.48
2023-02-17T11:15:22.491Z,12.39
2023-02-17T11:16:40.763Z,12.54
2023-02-17T11:17:44.814Z,12.47
2023-02-17T11:18:49.385Z,12.49
2023-02-17T11:19:58.873Z,12.53
2023-02-17T11:21:07.748Z,12.57
2023-02-17T11:22:41.226Z,12.56
2023-02-17T11:23:57.086Z,12.53
2023-02-17T11:25:01.505Z,12.46
2023-02-17T11:26:11.275Z,12.52
2023-02-17T11:27:26.762Z,12.55
2023-02-17T11:28:29.640Z,12.53
2023-02-17T11:29:34.220Z,12.53
2023-02-17T11:30:40.082Z,12.65
2023-02-17T11:31:43.017Z,12.55
2023-02-17T11:32:45.807Z,12.56
2023-02-17T11:33:48.499Z,12.49
2023-02-17T11:34:58.098Z,12.59
2023-02-17T11:36:02.023Z,12.59
2023-02-17T11:37:04.694Z,12.39
2023-02-17T11:38:22.339Z,12.51
2023-02-17T11:39:25.342Z,12.31
2023-02-17T11:40:31.052Z,12.44
2023-02-17T11:41:42.823Z,12.45
2023-02-17T11:42:55.941Z,12.37
2023-02-17T11:44:00.132Z,12.39
2023-02-17T11:45:17.773Z,12.52
2023-02-17T11:46:44.502Z,12.47
2023-02-17T11:48:09.743Z,12.41
2023-02-17T11:49:40.001Z,12.49
2023-02-17T11:50:56.184Z,12.40
2023-02-17T11:52:17.395Z,12.24
2023-02-17T11:53:38.560Z,12.23
2023-02-17T11:55:15.982Z,12.36
2023-02-17T11:56:22.584Z,12.35
2023-02-17T11:57:54.262Z,12.28
2023-02-17T11:59:08.926Z,12.34
2023-02-17T12:00:27.023Z,12.28
2023-02-17T12:01:48.027Z,12.40
2023-02-17T12:03:10.064Z,12.33
2023-02-17T12:04:31.950Z,12.24
2023-02-17T12:06:09.510Z,12.23
2023-02-17T12:07:15.264Z,12.05
2023-02-17T12:08:33.987Z,12.18
2023-02-17T12:09:54.409Z,12.13
2023-02-17T12:11:12.506Z,12.15
2023-02-17T12:12:57.990Z,12.37
2023-02-17T12:14:18.751Z,12.29
2023-02-17T12:15:49.228Z,12.31
2023-02-17T12:17:03.152Z,12.39
2023-02-17T12:18:15.036Z,12.35
2023-02-17T12:19:37.112Z,12.18
2023-02-17T12:21:14.918Z,12.25
2023-02-17T12:22:37.357Z,12.12
2023-02-17T12:24:10.603Z,12.28
2023-02-17T12:25:35.922Z,12.23
2023-02-17T12:26:53.206Z,12.19
2023-02-17T12:28:23.087Z,12.31
2023-02-17T12:29:33.056Z,12.25
2023-02-17T12:30:46.268Z,12.26
2023-02-17T12:32:07.742Z,12.29
2023-02-17T12:33:33.419Z,12.26
2023-02-17T12:34:53.130Z,12.26
2023-02-17T12:36:10.261Z,12.30
2023-02-17T12:37:27.304Z,12.32
2023-02-17T12:39:34.508Z,12.38
2023-02-17T12:40:37.508Z,12.31
2023-02-17T12:41:53.950Z,12.34
2023-02-17T12:43:03.555Z,12.24
2023-02-17T12:44:21.560Z,12.48
2023-02-17T12:45:34.399Z,12.32
2023-02-17T12:46:43.900Z,12.42
2023-02-17T12:48:07.432Z,12.33
2023-02-17T12:49:14.722Z,12.41
2023-02-17T12:50:27.688Z,12.46
2023-02-17T12:51:45.209Z,12.53
2023-02-17T12:52:54.450Z,12.46
2023-02-17T12:54:05.016Z,12.36
2023-02-17T12:55:10.777Z,12.40
2023-02-17T12:56:25.898Z,12.62
2023-02-17T12:57:35.376Z,12.66
2023-02-17T12:58:38.617Z,12.69
2023-02-17T12:59:44.745Z,12.70
2023-02-17T13:00:55.706Z,12.81
2023-02-17T13:02:01.884Z,12.86
2023-02-17T13:03:06.593Z,12.64
2023-02-17T13:04:17.030Z,12.76
2023-02-17T13:05:30.600Z,12.71
2023-02-17T13:06:40.193Z,12.87
2023-02-17T13:08:06.956Z,12.94
2023-02-17T13:09:21.958Z,13.00
2023-02-17T13:10:28.090Z,13.07
2023-02-17T13:11:36.490Z,12.95
2023-02-17T13:12:41.297Z,12.99
2023-02-17T13:13:44.650Z,12.94
2023-02-17T13:14:51.133Z,13.00
2023-02-17T13:19:07.939Z,13.24
2023-02-17T13:20:10.700Z,12.96
2023-02-17T13:21:24.984Z,13.25
2023-02-17T13:22:27.623Z,13.16
2023-02-17T13:23:35.443Z,13.13
2023-02-17T13:24:51.266Z,13.27
2023-02-17T13:26:23.907Z,13.19
2023-02-17T13:27:30.394Z,13.29
2023-02-17T13:28:39.636Z,13.19
2023-02-17T13:29:42.277Z,13.13
2023-02-17T13:30:48.397Z,13.15
2023-02-17T13:32:02.752Z,13.28
2023-02-17T13:33:15.400Z,13.26
2023-02-17T13:34:34.889Z,13.30
2023-02-17T13:35:37.630Z,13.15
2023-02-17T13:36:40.256Z,13.07
2023-02-17T13:37:46.053Z,13.20
2023-02-17T13:38:59.847Z,13.27
2023-02-17T13:40:15.808Z,13.19
2023-02-17T13:41:18.334Z,13.06
2023-02-17T13:42:35.372Z,13.16
2023-02-17T13:43:42.413Z,13.00
2023-02-17T13:44:47.216Z,13.13
2023-02-17T13:45:57.545Z,13.24
2023-02-17T13:47:05.249Z,13.26
2023-02-17T13:48:19.892Z,13.40
2023-02-17T13:49:27.909Z,13.51
2023-02-17T13:50:37.915Z,13.39
2023-02-17T13:51:40.415Z,13.17
2023-02-17T13:52:44.026Z,13.17
2023-02-17T13:53:50.494Z,13.22
2023-02-17T13:54:53.865Z,13.20
2023-02-17T13:56:05.628Z,13.38
2023-02-17T13:57:23.256Z,13.46
2023-02-17T13:58:32.747Z,13.48
2023-02-17T13:59:38.259Z,13.34
2023-02-17T14:00:44.164Z,13.53
2023-02-17T14:01:47.541Z,13.47
2023-02-17T14:02:59.394Z,13.53
2023-02-17T14:04:02.028Z,13.30
2023-02-17T14:05:30.828Z,13.56
2023-02-17T14:06:37.806Z,13.55
2023-02-17T14:07:40.422Z,13.40
2023-02-17T14:08:43.661Z,13.61
2023-02-17T14:09:54.102Z,13.56
2023-02-17T14:10:57.347Z,13.41
2023-02-17T14:12:03.255Z,13.56
2023-02-17T14:13:10.795Z,13.54
2023-02-17T14:14:13.425Z,13.42
2023-02-17T14:15:27.716Z,13.52
2023-02-17T14:16:35.025Z,13.58
2023-02-17T14:17:37.551Z,13.54
2023-02-17T14:18:44.398Z,13.51
2023-02-17T14:19:49.496Z,13.65
2023-02-17T14:21:05.153Z,13.72
2023-02-17T14:22:08.037Z,13.39
2023-02-17T14:23:13.699Z,13.51
2023-02-17T14:24:27.956Z,13.52
2023-02-17T14:25:32.399Z,13.66
2023-02-17T14:26:47.759Z,13.64
2023-02-17T14:27:51.256Z,13.60
2023-02-17T14:29:05.167Z,13.86
2023-02-17T14:30:12.860Z,13.72
2023-02-17T14:31:20.400Z,13.73